sensor_id;sensor_type;location;lat;lon;timestamp;temperature;humidity
19813;DHT22;10066;48.108;11.448;2023-03-31T00:02:00;7.30;99.90
19813;DHT22;10066;48.108;11.448;2023-03-31T00:04:27;7.20;99.90
19813;DHT22;10066;48.108;11.448;2023-03-31T00:06:56;7.20;99.90
19813;DHT22;10066;48.108;11.448;2023-03-31T00:11:55;7.10;99.90
19813;DHT22;10066;48.108;11.448;2023-03-31T00:14:22;7.10;99.90
19813;DHT22;10066;48.108;11.448;2023-03-31T00:16:51;7.10;99.90
19813;DHT22;10066;48.108;11.448;2023-03-31T00:19:18;7.10;99.90
19813;DHT22;10066;48.108;11.448;2023-03-31T00:21:46;7.10;99.90
19813;DHT22;10066;48.108;11.448;2023-03-31T00:24:16;7.20;99.90
19813;DHT22;10066;48.108;11.448;2023-03-31T00:26:43;7.20;99.90
19813;DHT22;10066;48.108;11.448;2023-03-31T00:29:12;7.20;99.90
19813;DHT22;10066;48.108;11.448;2023-03-31T00:31:40;7.30;99.90
19813;DHT22;10066;48.108;11.448;2023-03-31T00:34:07;7.30;99.90
19813;DHT22;10066;48.108;11.448;2023-03-31T00:36:34;7.30;99.90
19813;DHT22;10066;48.108;11.448;2023-03-31T00:39:10;7.40;99.90
19813;DHT22;10066;48.108;11.448;2023-03-31T00:41:38;7.40;99.90
19813;DHT22;10066;48.108;11.448;2023-03-31T00:44:08;7.50;99.90
19813;DHT22;10066;48.108;11.448;2023-03-31T00:46:41;7.50;99.90
19813;DHT22;10066;48.108;11.448;2023-03-31T00:49:24;7.60;99.90
19813;DHT22;10066;48.108;11.448;2023-03-31T00:51:54;7.70;99.90
19813;DHT22;10066;48.108;11.448;2023-03-31T00:54:22;7.70;99.90
19813;DHT22;10066;48.108;11.448;2023-03-31T00:56:52;7.80;99.90
19813;DHT22;10066;48.108;11.448;2023-03-31T00:59:26;7.90;99.90
19813;DHT22;10066;48.108;11.448;2023-03-31T01:01:55;7.90;99.90
19813;DHT22;10066;48.108;11.448;2023-03-31T01:04:29;8.00;99.90
19813;DHT22;10066;48.108;11.448;2023-03-31T01:07:02;8.10;99.90
19813;DHT22;10066;48.108;11.448;2023-03-31T01:09:34;8.10;99.90
19813;DHT22;10066;48.108;11.448;2023-03-31T01:12:06;8.20;99.90
19813;DHT22;10066;48.108;11.448;2023-03-31T01:14:34;8.30;99.90
19813;DHT22;10066;48.108;11.448;2023-03-31T01:17:03;8.30;99.90
19813;DHT22;10066;48.108;11.448;2023-03-31T01:19:46;8.40;99.90
19813;DHT22;10066;48.108;11.448;2023-03-31T01:28:28;8.50;99.90
19813;DHT22;10066;48.108;11.448;2023-03-31T01:31:28;8.60;99.90
19813;DHT22;10066;48.108;11.448;2023-03-31T01:34:23;8.60;99.90
19813;DHT22;10066;48.108;11.448;2023-03-31T01:37:26;8.60;99.90
19813;DHT22;10066;48.108;11.448;2023-03-31T01:40:39;8.50;99.90
19813;DHT22;10066;48.108;11.448;2023-03-31T01:43:11;8.50;99.90
19813;DHT22;10066;48.108;11.448;2023-03-31T01:45:48;8.40;99.90
19813;DHT22;10066;48.108;11.448;2023-03-31T01:48:19;8.30;99.90
19813;DHT22;10066;48.108;11.448;2023-03-31T01:50:52;8.30;99.90
19813;DHT22;10066;48.108;11.448;2023-03-31T01:53:28;8.30;99.90
19813;DHT22;10066;48.108;11.448;2023-03-31T01:56:00;8.30;99.90
19813;DHT22;10066;48.108;11.448;2023-03-31T01:58:31;8.30;99.90
19813;DHT22;10066;48.108;11.448;2023-03-31T02:01:01;8.30;99.90
19813;DHT22;10066;48.108;11.448;2023-03-31T02:03:32;8.40;99.90
19813;DHT22;10066;48.108;11.448;2023-03-31T02:06:08;8.40;99.90
19813;DHT22;10066;48.108;11.448;2023-03-31T02:08:38;8.40;99.90
19813;DHT22;10066;48.108;11.448;2023-03-31T02:11:08;8.50;99.90
19813;DHT22;10066;48.108;11.448;2023-03-31T02:13:39;8.50;99.90
19813;DHT22;10066;48.108;11.448;2023-03-31T02:16:12;8.60;99.90
19813;DHT22;10066;48.108;11.448;2023-03-31T02:18:43;8.60;99.90
19813;DHT22;10066;48.108;11.448;2023-03-31T02:21:13;8.60;99.90
19813;DHT22;10066;48.108;11.448;2023-03-31T02:23:41;8.60;99.90
19813;DHT22;10066;48.108;11.448;2023-03-31T02:26:14;8.60;99.90
19813;DHT22;10066;48.108;11.448;2023-03-31T02:28:42;8.70;99.90
19813;DHT22;10066;48.108;11.448;2023-03-31T02:31:20;8.70;99.90
19813;DHT22;10066;48.108;11.448;2023-03-31T02:33:50;8.70;99.90
19813;DHT22;10066;48.108;11.448;2023-03-31T02:36:18;8.80;99.90
19813;DHT22;10066;48.108;11.448;2023-03-31T02:38:50;8.80;99.90
19813;DHT22;10066;48.108;11.448;2023-03-31T02:41:21;8.90;99.90
19813;DHT22;10066;48.108;11.448;2023-03-31T02:43:48;8.90;99.90
19813;DHT22;10066;48.108;11.448;2023-03-31T02:46:15;8.90;99.90
19813;DHT22;10066;48.108;11.448;2023-03-31T02:48:44;8.90;99.90
19813;DHT22;10066;48.108;11.448;2023-03-31T02:54:41;8.90;99.90
19813;DHT22;10066;48.108;11.448;2023-03-31T03:00:15;8.90;99.90
19813;DHT22;10066;48.108;11.448;2023-03-31T03:02:53;9.00;99.90
19813;DHT22;10066;48.108;11.448;2023-03-31T03:05:30;9.00;99.90
19813;DHT22;10066;48.108;11.448;2023-03-31T03:08:08;9.00;99.90
19813;DHT22;10066;48.108;11.448;2023-03-31T03:10:45;9.00;99.90
19813;DHT22;10066;48.108;11.448;2023-03-31T03:13:20;9.00;99.90
19813;DHT22;10066;48.108;11.448;2023-03-31T03:15:54;9.00;99.90
19813;DHT22;10066;48.108;11.448;2023-03-31T03:18:21;9.00;99.90
19813;DHT22;10066;48.108;11.448;2023-03-31T03:20:48;9.10;99.90
19813;DHT22;10066;48.108;11.448;2023-03-31T03:23:15;9.10;99.90
19813;DHT22;10066;48.108;11.448;2023-03-31T03:25:43;9.10;99.90
19813;DHT22;10066;48.108;11.448;2023-03-31T03:28:10;9.10;99.90
19813;DHT22;10066;48.108;11.448;2023-03-31T03:30:37;9.10;99.90
19813;DHT22;10066;48.108;11.448;2023-03-31T03:33:06;9.10;99.90
19813;DHT22;10066;48.108;11.448;2023-03-31T03:35:34;9.10;99.90
19813;DHT22;10066;48.108;11.448;2023-03-31T03:38:01;9.10;99.90
19813;DHT22;10066;48.108;11.448;2023-03-31T03:40:28;9.10;99.90
19813;DHT22;10066;48.108;11.448;2023-03-31T03:42:55;9.10;99.90
19813;DHT22;10066;48.108;11.448;2023-03-31T03:45:22;9.10;99.90
19813;DHT22;10066;48.108;11.448;2023-03-31T03:47:49;9.10;99.90
19813;DHT22;10066;48.108;11.448;2023-03-31T03:50:17;9.10;99.90
19813;DHT22;10066;48.108;11.448;2023-03-31T03:52:44;9.10;99.90
19813;DHT22;10066;48.108;11.448;2023-03-31T03:55:12;9.10;99.90
19813;DHT22;10066;48.108;11.448;2023-03-31T03:57:39;9.00;99.90
19813;DHT22;10066;48.108;11.448;2023-03-31T04:00:08;9.00;99.90
19813;DHT22;10066;48.108;11.448;2023-03-31T04:02:37;9.00;99.90
19813;DHT22;10066;48.108;11.448;2023-03-31T04:05:04;9.00;99.90
19813;DHT22;10066;48.108;11.448;2023-03-31T04:07:33;9.00;99.90
19813;DHT22;10066;48.108;11.448;2023-03-31T04:10:00;9.00;99.90
19813;DHT22;10066;48.108;11.448;2023-03-31T04:12:29;9.00;99.90
19813;DHT22;10066;48.108;11.448;2023-03-31T04:14:56;9.00;99.90
19813;DHT22;10066;48.108;11.448;2023-03-31T04:17:23;9.00;99.90
19813;DHT22;10066;48.108;11.448;2023-03-31T04:19:57;9.10;99.90
19813;DHT22;10066;48.108;11.448;2023-03-31T04:22:26;9.10;99.90
19813;DHT22;10066;48.108;11.448;2023-03-31T04:24:55;9.10;99.90
19813;DHT22;10066;48.108;11.448;2023-03-31T04:27:23;9.10;99.90
19813;DHT22;10066;48.108;11.448;2023-03-31T04:29:51;9.10;99.90
19813;DHT22;10066;48.108;11.448;2023-03-31T04:32:19;9.10;99.90
19813;DHT22;10066;48.108;11.448;2023-03-31T04:34:47;9.10;99.90
19813;DHT22;10066;48.108;11.448;2023-03-31T04:37:15;9.20;99.90
19813;DHT22;10066;48.108;11.448;2023-03-31T04:39:42;9.20;99.90
19813;DHT22;10066;48.108;11.448;2023-03-31T04:42:12;9.20;99.90
19813;DHT22;10066;48.108;11.448;2023-03-31T04:44:40;9.20;99.90
19813;DHT22;10066;48.108;11.448;2023-03-31T04:47:06;9.20;99.90
19813;DHT22;10066;48.108;11.448;2023-03-31T04:49:33;9.20;99.90
19813;DHT22;10066;48.108;11.448;2023-03-31T04:52:01;9.20;99.90
19813;DHT22;10066;48.108;11.448;2023-03-31T04:54:28;9.10;99.90
19813;DHT22;10066;48.108;11.448;2023-03-31T04:56:55;9.10;99.90
19813;DHT22;10066;48.108;11.448;2023-03-31T04:59:23;9.10;99.90
19813;DHT22;10066;48.108;11.448;2023-03-31T05:01:50;9.00;99.90
19813;DHT22;10066;48.108;11.448;2023-03-31T05:04:17;9.00;99.90
19813;DHT22;10066;48.108;11.448;2023-03-31T05:06:44;9.00;99.90
19813;DHT22;10066;48.108;11.448;2023-03-31T05:09:11;8.90;99.90
19813;DHT22;10066;48.108;11.448;2023-03-31T05:11:38;8.80;99.90
19813;DHT22;10066;48.108;11.448;2023-03-31T05:14:05;8.80;99.90
19813;DHT22;10066;48.108;11.448;2023-03-31T05:16:34;8.70;99.90
19813;DHT22;10066;48.108;11.448;2023-03-31T05:19:01;8.70;99.90
19813;DHT22;10066;48.108;11.448;2023-03-31T05:21:27;8.70;99.90
19813;DHT22;10066;48.108;11.448;2023-03-31T05:23:55;8.70;99.90
19813;DHT22;10066;48.108;11.448;2023-03-31T05:26:22;8.70;99.90
19813;DHT22;10066;48.108;11.448;2023-03-31T05:28:49;8.60;99.90
19813;DHT22;10066;48.108;11.448;2023-03-31T05:31:17;8.60;99.90
19813;DHT22;10066;48.108;11.448;2023-03-31T05:33:46;8.60;99.90
19813;DHT22;10066;48.108;11.448;2023-03-31T05:36:15;8.60;99.90
19813;DHT22;10066;48.108;11.448;2023-03-31T05:38:42;8.60;99.90
19813;DHT22;10066;48.108;11.448;2023-03-31T05:41:10;8.60;99.90
19813;DHT22;10066;48.108;11.448;2023-03-31T05:43:37;8.60;99.90
19813;DHT22;10066;48.108;11.448;2023-03-31T05:46:04;8.60;99.90
19813;DHT22;10066;48.108;11.448;2023-03-31T05:48:32;8.60;99.90
19813;DHT22;10066;48.108;11.448;2023-03-31T05:51:03;8.60;99.90
19813;DHT22;10066;48.108;11.448;2023-03-31T05:53:30;8.70;99.90
19813;DHT22;10066;48.108;11.448;2023-03-31T05:55:59;8.70;99.90
19813;DHT22;10066;48.108;11.448;2023-03-31T05:58:27;8.80;99.90
19813;DHT22;10066;48.108;11.448;2023-03-31T06:01:01;8.80;99.90
19813;DHT22;10066;48.108;11.448;2023-03-31T06:03:30;8.90;99.90
19813;DHT22;10066;48.108;11.448;2023-03-31T06:05:57;8.90;99.90
19813;DHT22;10066;48.108;11.448;2023-03-31T06:08:26;9.00;99.90
19813;DHT22;10066;48.108;11.448;2023-03-31T06:10:53;9.00;99.90
19813;DHT22;10066;48.108;11.448;2023-03-31T06:13:19;9.00;99.90
19813;DHT22;10066;48.108;11.448;2023-03-31T06:15:53;9.00;99.90
19813;DHT22;10066;48.108;11.448;2023-03-31T06:18:19;9.10;99.90
19813;DHT22;10066;48.108;11.448;2023-03-31T06:20:46;9.20;99.90
19813;DHT22;10066;48.108;11.448;2023-03-31T06:23:13;9.30;99.90
19813;DHT22;10066;48.108;11.448;2023-03-31T06:25:42;9.30;99.90
19813;DHT22;10066;48.108;11.448;2023-03-31T06:28:08;9.40;99.90
19813;DHT22;10066;48.108;11.448;2023-03-31T06:30:35;9.40;99.90
19813;DHT22;10066;48.108;11.448;2023-03-31T06:33:02;9.40;99.90
19813;DHT22;10066;48.108;11.448;2023-03-31T06:35:29;9.50;99.90
19813;DHT22;10066;48.108;11.448;2023-03-31T06:37:56;9.50;99.90
19813;DHT22;10066;48.108;11.448;2023-03-31T06:40:23;9.50;99.90
19813;DHT22;10066;48.108;11.448;2023-03-31T06:42:52;9.50;99.90
19813;DHT22;10066;48.108;11.448;2023-03-31T06:45:20;9.60;99.90
19813;DHT22;10066;48.108;11.448;2023-03-31T06:47:47;9.60;99.90
19813;DHT22;10066;48.108;11.448;2023-03-31T06:50:14;9.70;99.90
19813;DHT22;10066;48.108;11.448;2023-03-31T06:52:41;9.70;99.90
19813;DHT22;10066;48.108;11.448;2023-03-31T06:55:09;9.70;99.90
19813;DHT22;10066;48.108;11.448;2023-03-31T06:57:37;9.80;99.90
19813;DHT22;10066;48.108;11.448;2023-03-31T07:00:08;9.80;99.90
19813;DHT22;10066;48.108;11.448;2023-03-31T07:02:35;9.80;99.90
19813;DHT22;10066;48.108;11.448;2023-03-31T07:05:03;9.90;99.90
19813;DHT22;10066;48.108;11.448;2023-03-31T07:07:30;9.90;99.90
19813;DHT22;10066;48.108;11.448;2023-03-31T07:09:57;9.90;99.90
19813;DHT22;10066;48.108;11.448;2023-03-31T07:12:28;9.90;99.90
19813;DHT22;10066;48.108;11.448;2023-03-31T07:14:57;9.90;99.90
19813;DHT22;10066;48.108;11.448;2023-03-31T07:17:26;9.90;99.90
19813;DHT22;10066;48.108;11.448;2023-03-31T07:19:53;9.80;99.90
19813;DHT22;10066;48.108;11.448;2023-03-31T07:22:20;9.80;99.90
19813;DHT22;10066;48.108;11.448;2023-03-31T07:24:47;9.80;99.90
19813;DHT22;10066;48.108;11.448;2023-03-31T07:27:14;9.80;99.90
19813;DHT22;10066;48.108;11.448;2023-03-31T07:29:41;9.70;99.90
19813;DHT22;10066;48.108;11.448;2023-03-31T07:32:07;9.60;99.90
19813;DHT22;10066;48.108;11.448;2023-03-31T07:34:36;9.60;99.90
19813;DHT22;10066;48.108;11.448;2023-03-31T07:37:05;9.60;99.90
19813;DHT22;10066;48.108;11.448;2023-03-31T07:39:32;9.60;99.90
19813;DHT22;10066;48.108;11.448;2023-03-31T07:42:01;9.60;99.90
19813;DHT22;10066;48.108;11.448;2023-03-31T07:44:28;9.60;99.90
19813;DHT22;10066;48.108;11.448;2023-03-31T07:46:55;9.60;99.90
19813;DHT22;10066;48.108;11.448;2023-03-31T07:49:23;9.60;99.90
19813;DHT22;10066;48.108;11.448;2023-03-31T07:51:51;9.70;99.90
19813;DHT22;10066;48.108;11.448;2023-03-31T07:54:18;9.70;99.90
19813;DHT22;10066;48.108;11.448;2023-03-31T07:56:45;9.70;99.90
19813;DHT22;10066;48.108;11.448;2023-03-31T07:59:12;9.70;99.90
19813;DHT22;10066;48.108;11.448;2023-03-31T08:01:39;9.80;99.90
19813;DHT22;10066;48.108;11.448;2023-03-31T08:04:06;9.80;99.90
19813;DHT22;10066;48.108;11.448;2023-03-31T08:06:32;9.80;99.90
19813;DHT22;10066;48.108;11.448;2023-03-31T08:09:01;9.90;99.90
19813;DHT22;10066;48.108;11.448;2023-03-31T08:11:30;9.90;99.90
19813;DHT22;10066;48.108;11.448;2023-03-31T08:13:56;10.00;99.90
19813;DHT22;10066;48.108;11.448;2023-03-31T08:16:23;10.10;99.90
19813;DHT22;10066;48.108;11.448;2023-03-31T08:18:50;10.20;99.90
19813;DHT22;10066;48.108;11.448;2023-03-31T08:21:18;10.30;99.90
19813;DHT22;10066;48.108;11.448;2023-03-31T08:23:44;10.30;99.90
19813;DHT22;10066;48.108;11.448;2023-03-31T08:26:14;10.30;99.90
19813;DHT22;10066;48.108;11.448;2023-03-31T08:28:42;10.30;99.90
19813;DHT22;10066;48.108;11.448;2023-03-31T08:31:09;10.30;99.90
19813;DHT22;10066;48.108;11.448;2023-03-31T08:33:36;10.30;99.90
19813;DHT22;10066;48.108;11.448;2023-03-31T08:36:04;10.30;99.90
19813;DHT22;10066;48.108;11.448;2023-03-31T08:38:33;10.30;99.90
19813;DHT22;10066;48.108;11.448;2023-03-31T08:41:03;10.30;99.90
19813;DHT22;10066;48.108;11.448;2023-03-31T08:43:35;10.30;99.90
19813;DHT22;10066;48.108;11.448;2023-03-31T08:46:04;10.40;99.90
19813;DHT22;10066;48.108;11.448;2023-03-31T08:48:34;10.40;99.90
19813;DHT22;10066;48.108;11.448;2023-03-31T08:51:09;10.40;99.90
19813;DHT22;10066;48.108;11.448;2023-03-31T08:53:41;10.30;99.90
19813;DHT22;10066;48.108;11.448;2023-03-31T08:56:14;10.30;99.90
19813;DHT22;10066;48.108;11.448;2023-03-31T08:58:45;10.20;99.90
19813;DHT22;10066;48.108;11.448;2023-03-31T09:01:21;10.10;99.90
19813;DHT22;10066;48.108;11.448;2023-03-31T09:04:11;10.20;99.90
19813;DHT22;10066;48.108;11.448;2023-03-31T09:06:43;10.20;99.90
19813;DHT22;10066;48.108;11.448;2023-03-31T09:09:17;10.20;99.90
19813;DHT22;10066;48.108;11.448;2023-03-31T09:11:51;10.30;99.90
19813;DHT22;10066;48.108;11.448;2023-03-31T09:14:30;10.40;99.90
19813;DHT22;10066;48.108;11.448;2023-03-31T09:17:11;10.60;99.90
19813;DHT22;10066;48.108;11.448;2023-03-31T09:19:42;10.60;99.90
19813;DHT22;10066;48.108;11.448;2023-03-31T09:22:15;10.80;99.90
19813;DHT22;10066;48.108;11.448;2023-03-31T09:24:50;10.80;99.90
19813;DHT22;10066;48.108;11.448;2023-03-31T09:27:20;10.90;99.90
19813;DHT22;10066;48.108;11.448;2023-03-31T09:29:54;11.00;99.90
19813;DHT22;10066;48.108;11.448;2023-03-31T09:32:27;11.20;99.90
19813;DHT22;10066;48.108;11.448;2023-03-31T09:34:57;11.30;99.90
19813;DHT22;10066;48.108;11.448;2023-03-31T09:37:29;11.50;99.90
19813;DHT22;10066;48.108;11.448;2023-03-31T09:39:57;11.70;99.90
19813;DHT22;10066;48.108;11.448;2023-03-31T09:42:25;11.90;99.90
19813;DHT22;10066;48.108;11.448;2023-03-31T09:44:54;12.10;99.90
19813;DHT22;10066;48.108;11.448;2023-03-31T09:49:55;12.30;99.90
19813;DHT22;10066;48.108;11.448;2023-03-31T09:52:27;12.40;99.90
19813;DHT22;10066;48.108;11.448;2023-03-31T09:54:58;12.50;99.90
19813;DHT22;10066;48.108;11.448;2023-03-31T09:57:27;12.50;99.90
19813;DHT22;10066;48.108;11.448;2023-03-31T10:00:04;12.50;99.90
19813;DHT22;10066;48.108;11.448;2023-03-31T10:02:38;12.50;99.90
19813;DHT22;10066;48.108;11.448;2023-03-31T10:05:20;12.50;99.90
19813;DHT22;10066;48.108;11.448;2023-03-31T10:07:48;12.50;99.90
19813;DHT22;10066;48.108;11.448;2023-03-31T10:10:26;12.60;99.90
19813;DHT22;10066;48.108;11.448;2023-03-31T10:12:54;12.80;99.90
19813;DHT22;10066;48.108;11.448;2023-03-31T10:15:25;12.90;99.90
19813;DHT22;10066;48.108;11.448;2023-03-31T10:17:53;13.00;99.90
19813;DHT22;10066;48.108;11.448;2023-03-31T10:20:30;13.00;99.90
19813;DHT22;10066;48.108;11.448;2023-03-31T10:23:02;13.00;99.90
19813;DHT22;10066;48.108;11.448;2023-03-31T10:25:32;13.00;99.90
19813;DHT22;10066;48.108;11.448;2023-03-31T10:28:01;13.00;99.90
19813;DHT22;10066;48.108;11.448;2023-03-31T10:30:34;13.00;99.90
19813;DHT22;10066;48.108;11.448;2023-03-31T10:33:05;13.00;99.90
19813;DHT22;10066;48.108;11.448;2023-03-31T10:35:34;13.00;99.90
19813;DHT22;10066;48.108;11.448;2023-03-31T10:38:04;13.00;99.90
19813;DHT22;10066;48.108;11.448;2023-03-31T10:40:33;13.10;99.90
19813;DHT22;10066;48.108;11.448;2023-03-31T10:43:04;13.10;99.90
19813;DHT22;10066;48.108;11.448;2023-03-31T10:45:41;13.20;99.90
19813;DHT22;10066;48.108;11.448;2023-03-31T10:48:17;13.30;99.90
19813;DHT22;10066;48.108;11.448;2023-03-31T10:50:45;13.50;99.90
19813;DHT22;10066;48.108;11.448;2023-03-31T10:53:14;13.80;99.90
19813;DHT22;10066;48.108;11.448;2023-03-31T10:55:59;13.90;99.90
19813;DHT22;10066;48.108;11.448;2023-03-31T10:58:39;14.10;99.90
19813;DHT22;10066;48.108;11.448;2023-03-31T11:01:24;14.30;99.90
19813;DHT22;10066;48.108;11.448;2023-03-31T11:04:21;14.50;99.90
19813;DHT22;10066;48.108;11.448;2023-03-31T11:06:57;14.50;99.90
19813;DHT22;10066;48.108;11.448;2023-03-31T11:09:37;14.60;99.90
19813;DHT22;10066;48.108;11.448;2023-03-31T11:12:17;14.60;99.90
19813;DHT22;10066;48.108;11.448;2023-03-31T11:14:54;14.60;99.90
19813;DHT22;10066;48.108;11.448;2023-03-31T11:17:34;14.50;99.90
19813;DHT22;10066;48.108;11.448;2023-03-31T11:20:14;14.30;99.90
19813;DHT22;10066;48.108;11.448;2023-03-31T11:22:50;14.20;99.90
19813;DHT22;10066;48.108;11.448;2023-03-31T11:25:22;14.10;99.90
19813;DHT22;10066;48.108;11.448;2023-03-31T11:28:21;13.80;99.90
19813;DHT22;10066;48.108;11.448;2023-03-31T11:30:56;13.50;99.90
19813;DHT22;10066;48.108;11.448;2023-03-31T11:39:19;11.90;99.90
19813;DHT22;10066;48.108;11.448;2023-03-31T11:41:50;11.40;99.90
19813;DHT22;10066;48.108;11.448;2023-03-31T11:44:19;11.10;99.90
19813;DHT22;10066;48.108;11.448;2023-03-31T11:46:52;10.90;99.90
19813;DHT22;10066;48.108;11.448;2023-03-31T11:49:23;10.80;99.90
19813;DHT22;10066;48.108;11.448;2023-03-31T11:51:55;10.80;99.90
19813;DHT22;10066;48.108;11.448;2023-03-31T11:54:27;10.80;99.90
19813;DHT22;10066;48.108;11.448;2023-03-31T11:56:56;10.80;99.90
19813;DHT22;10066;48.108;11.448;2023-03-31T11:59:25;10.90;99.90
19813;DHT22;10066;48.108;11.448;2023-03-31T12:02:03;10.90;99.90
19813;DHT22;10066;48.108;11.448;2023-03-31T12:04:37;11.00;99.90
19813;DHT22;10066;48.108;11.448;2023-03-31T12:07:22;11.10;99.90
19813;DHT22;10066;48.108;11.448;2023-03-31T12:09:54;11.20;99.90
19813;DHT22;10066;48.108;11.448;2023-03-31T12:12:32;11.30;99.90
19813;DHT22;10066;48.108;11.448;2023-03-31T12:15:05;11.50;99.90
19813;DHT22;10066;48.108;11.448;2023-03-31T12:17:37;11.70;99.90
19813;DHT22;10066;48.108;11.448;2023-03-31T12:20:13;11.90;99.90
19813;DHT22;10066;48.108;11.448;2023-03-31T12:22:47;12.20;99.90
19813;DHT22;10066;48.108;11.448;2023-03-31T12:25:15;12.40;99.90
19813;DHT22;10066;48.108;11.448;2023-03-31T12:27:47;12.50;99.90
19813;DHT22;10066;48.108;11.448;2023-03-31T12:30:21;12.60;99.90
19813;DHT22;10066;48.108;11.448;2023-03-31T12:32:56;12.70;99.90
19813;DHT22;10066;48.108;11.448;2023-03-31T12:35:27;12.80;99.90
19813;DHT22;10066;48.108;11.448;2023-03-31T12:38:19;12.90;99.90
19813;DHT22;10066;48.108;11.448;2023-03-31T12:40:55;13.00;99.90
19813;DHT22;10066;48.108;11.448;2023-03-31T12:46:45;13.10;99.90
19813;DHT22;10066;48.108;11.448;2023-03-31T12:51:58;13.20;99.90
19813;DHT22;10066;48.108;11.448;2023-03-31T12:54:41;13.30;99.90
19813;DHT22;10066;48.108;11.448;2023-03-31T12:57:19;13.20;99.90
19813;DHT22;10066;48.108;11.448;2023-03-31T13:00:14;13.30;99.90
19813;DHT22;10066;48.108;11.448;2023-03-31T13:02:46;13.30;99.90
19813;DHT22;10066;48.108;11.448;2023-03-31T13:08:53;13.30;99.90
19813;DHT22;10066;48.108;11.448;2023-03-31T13:11:35;13.40;99.90
19813;DHT22;10066;48.108;11.448;2023-03-31T13:14:05;13.40;99.90
19813;DHT22;10066;48.108;11.448;2023-03-31T13:16:34;13.40;99.90
19813;DHT22;10066;48.108;11.448;2023-03-31T13:19:01;13.40;99.90
19813;DHT22;10066;48.108;11.448;2023-03-31T13:21:51;13.30;99.90
19813;DHT22;10066;48.108;11.448;2023-03-31T13:24:21;13.10;99.90
19813;DHT22;10066;48.108;11.448;2023-03-31T13:26:51;13.10;99.90
19813;DHT22;10066;48.108;11.448;2023-03-31T13:29:23;13.00;99.90
19813;DHT22;10066;48.108;11.448;2023-03-31T13:32:18;12.90;99.90
19813;DHT22;10066;48.108;11.448;2023-03-31T13:34:49;12.80;99.90
19813;DHT22;10066;48.108;11.448;2023-03-31T13:37:29;12.70;99.90
19813;DHT22;10066;48.108;11.448;2023-03-31T13:40:13;12.70;99.90
19813;DHT22;10066;48.108;11.448;2023-03-31T13:43:09;12.60;99.90
19813;DHT22;10066;48.108;11.448;2023-03-31T13:45:50;12.60;99.90
19813;DHT22;10066;48.108;11.448;2023-03-31T13:48:28;12.60;99.90
19813;DHT22;10066;48.108;11.448;2023-03-31T13:51:13;12.70;99.90
19813;DHT22;10066;48.108;11.448;2023-03-31T13:56:57;12.70;99.90
19813;DHT22;10066;48.108;11.448;2023-03-31T13:59:45;12.80;99.90
19813;DHT22;10066;48.108;11.448;2023-03-31T14:02:34;12.90;99.90
19813;DHT22;10066;48.108;11.448;2023-03-31T14:05:18;13.00;99.90
19813;DHT22;10066;48.108;11.448;2023-03-31T14:07:52;13.20;99.90
19813;DHT22;10066;48.108;11.448;2023-03-31T14:10:27;13.30;99.90
19813;DHT22;10066;48.108;11.448;2023-03-31T14:13:04;13.50;99.90
19813;DHT22;10066;48.108;11.448;2023-03-31T14:15:35;13.50;99.90
19813;DHT22;10066;48.108;11.448;2023-03-31T14:18:03;13.50;99.90
19813;DHT22;10066;48.108;11.448;2023-03-31T14:20:36;13.50;99.90
19813;DHT22;10066;48.108;11.448;2023-03-31T14:23:14;13.40;99.90
19813;DHT22;10066;48.108;11.448;2023-03-31T14:25:49;13.40;99.90
19813;DHT22;10066;48.108;11.448;2023-03-31T14:28:40;13.20;99.90
19813;DHT22;10066;48.108;11.448;2023-03-31T14:31:16;13.10;99.90
19813;DHT22;10066;48.108;11.448;2023-03-31T14:33:53;13.00;99.90
19813;DHT22;10066;48.108;11.448;2023-03-31T14:36:31;13.00;99.90
19813;DHT22;10066;48.108;11.448;2023-03-31T14:39:05;12.90;99.90
19813;DHT22;10066;48.108;11.448;2023-03-31T14:41:35;12.80;99.90
19813;DHT22;10066;48.108;11.448;2023-03-31T14:44:05;12.60;99.90
19813;DHT22;10066;48.108;11.448;2023-03-31T14:46:38;12.50;99.90
19813;DHT22;10066;48.108;11.448;2023-03-31T14:49:18;12.30;99.90
19813;DHT22;10066;48.108;11.448;2023-03-31T14:51:46;11.90;99.90
19813;DHT22;10066;48.108;11.448;2023-03-31T14:54:15;11.60;99.90
19813;DHT22;10066;48.108;11.448;2023-03-31T14:56:44;11.40;99.90
19813;DHT22;10066;48.108;11.448;2023-03-31T14:59:15;11.20;99.90
19813;DHT22;10066;48.108;11.448;2023-03-31T15:01:48;11.00;99.90
19813;DHT22;10066;48.108;11.448;2023-03-31T15:04:18;10.90;99.90
19813;DHT22;10066;48.108;11.448;2023-03-31T15:06:47;10.80;99.90
19813;DHT22;10066;48.108;11.448;2023-03-31T15:09:21;10.60;99.90
19813;DHT22;10066;48.108;11.448;2023-03-31T15:11:54;10.60;99.90
19813;DHT22;10066;48.108;11.448;2023-03-31T15:14:22;10.60;99.90
19813;DHT22;10066;48.108;11.448;2023-03-31T15:16:51;10.80;99.90
19813;DHT22;10066;48.108;11.448;2023-03-31T15:19:21;11.00;99.90
19813;DHT22;10066;48.108;11.448;2023-03-31T15:21:54;11.00;99.90
19813;DHT22;10066;48.108;11.448;2023-03-31T15:24:21;11.00;99.90
19813;DHT22;10066;48.108;11.448;2023-03-31T15:26:53;11.00;99.90
19813;DHT22;10066;48.108;11.448;2023-03-31T15:29:25;11.00;99.90
19813;DHT22;10066;48.108;11.448;2023-03-31T15:31:57;11.00;99.90
19813;DHT22;10066;48.108;11.448;2023-03-31T15:34:26;11.00;99.90
19813;DHT22;10066;48.108;11.448;2023-03-31T15:36:56;11.00;99.90
19813;DHT22;10066;48.108;11.448;2023-03-31T15:39:23;11.10;99.90
19813;DHT22;10066;48.108;11.448;2023-03-31T15:41:52;11.10;99.90
19813;DHT22;10066;48.108;11.448;2023-03-31T15:44:35;11.00;99.90
19813;DHT22;10066;48.108;11.448;2023-03-31T15:47:13;11.00;99.90
19813;DHT22;10066;48.108;11.448;2023-03-31T15:49:51;11.00;99.90
19813;DHT22;10066;48.108;11.448;2023-03-31T15:52:36;10.90;99.90
19813;DHT22;10066;48.108;11.448;2023-03-31T15:55:23;10.90;99.90
19813;DHT22;10066;48.108;11.448;2023-03-31T15:57:51;10.90;99.90
19813;DHT22;10066;48.108;11.448;2023-03-31T16:00:40;10.90;99.90
19813;DHT22;10066;48.108;11.448;2023-03-31T16:03:17;11.00;99.90
19813;DHT22;10066;48.108;11.448;2023-03-31T16:05:50;11.00;99.90
19813;DHT22;10066;48.108;11.448;2023-03-31T16:08:23;11.00;99.90
19813;DHT22;10066;48.108;11.448;2023-03-31T16:10:56;11.00;99.90
19813;DHT22;10066;48.108;11.448;2023-03-31T16:13:25;11.10;99.90
19813;DHT22;10066;48.108;11.448;2023-03-31T16:15:54;11.20;99.90
19813;DHT22;10066;48.108;11.448;2023-03-31T16:18:29;11.20;99.90
19813;DHT22;10066;48.108;11.448;2023-03-31T16:20:59;11.30;99.90
19813;DHT22;10066;48.108;11.448;2023-03-31T16:23:29;11.40;99.90
19813;DHT22;10066;48.108;11.448;2023-03-31T16:25:56;11.50;99.90
19813;DHT22;10066;48.108;11.448;2023-03-31T16:28:26;11.60;99.90